createdAt,value
2019-02-06T00:02:49.018Z,37.03
2019-02-06T00:06:52.749Z,37.60
2019-02-06T00:10:56.046Z,36.23
2019-02-06T00:14:59.871Z,34.73
2019-02-06T00:19:03.749Z,36.10
2019-02-06T00:23:07.170Z,37.00
2019-02-06T00:27:10.471Z,37.80
2019-02-06T00:31:15.000Z,36.10
2019-02-06T00:35:25.542Z,34.70
2019-02-06T00:39:24.190Z,36.33
2019-02-06T00:43:27.493Z,32.90
2019-02-06T00:47:31.278Z,36.77
2019-02-06T00:51:35.007Z,35.57
2019-02-06T00:55:38.728Z,35.27
2019-02-06T00:59:42.023Z,33.03
2019-02-06T01:03:45.827Z,33.10
2019-02-06T01:07:49.224Z,34.07
2019-02-06T01:11:52.514Z,33.00
2019-02-06T01:15:55.818Z,26.40
2019-02-06T01:19:59.121Z,28.90
2019-02-06T01:24:03.401Z,28.63
2019-02-06T01:28:06.687Z,24.37
2019-02-06T01:32:10.674Z,24.57
2019-02-06T01:36:13.974Z,25.57
2019-02-06T01:40:17.822Z,23.27
2019-02-06T01:44:21.563Z,24.07
2019-02-06T01:48:25.650Z,22.03
2019-02-06T01:52:28.949Z,20.77
2019-02-06T01:56:33.014Z,18.73
2019-02-06T02:00:37.689Z,22.13
2019-02-06T02:04:40.994Z,19.50
2019-02-06T02:08:48.162Z,17.07
2019-02-06T02:12:51.842Z,16.50
2019-02-06T02:16:55.140Z,15.63
2019-02-06T02:20:58.898Z,14.17
2019-02-06T02:25:02.193Z,13.20
2019-02-06T02:29:06.026Z,14.40
2019-02-06T02:33:09.996Z,11.90
2019-02-06T02:37:13.302Z,11.30
2019-02-06T02:41:17.081Z,11.10
2019-02-06T02:45:20.899Z,10.50
2019-02-06T02:49:24.274Z,10.20
2019-02-06T02:53:27.582Z,9.23
2019-02-06T02:57:30.966Z,10.67
2019-02-06T03:01:52.283Z,11.40
2019-02-06T03:05:55.637Z,9.80
2019-02-06T03:09:59.765Z,10.03
2019-02-06T03:14:03.490Z,10.10
2019-02-06T03:18:07.674Z,9.80
2019-02-06T03:22:11.054Z,10.73
2019-02-06T03:26:14.427Z,10.63
2019-02-06T03:30:18.321Z,10.67
2019-02-06T03:34:22.034Z,11.10
2019-02-06T03:38:25.338Z,10.20
2019-02-06T03:42:29.147Z,10.27
2019-02-06T03:46:32.962Z,10.77
2019-02-06T03:50:36.700Z,10.90
2019-02-06T03:54:39.998Z,9.57
2019-02-06T03:58:43.734Z,11.10
2019-02-06T04:02:47.479Z,11.13
2019-02-06T04:06:55.071Z,11.30
2019-02-06T04:10:55.794Z,11.50
2019-02-06T04:14:59.106Z,10.83
2019-02-06T04:19:02.406Z,12.40
2019-02-06T04:23:06.230Z,12.43
2019-02-06T04:27:09.814Z,13.47
2019-02-06T04:31:13.547Z,12.93
2019-02-06T04:35:17.361Z,11.43
2019-02-06T04:39:21.090Z,12.60
2019-02-06T04:43:24.394Z,12.27
2019-02-06T04:47:27.697Z,13.07
2019-02-06T04:51:31.369Z,11.07
2019-02-06T04:55:34.646Z,11.90
2019-02-06T04:59:37.947Z,12.47
2019-02-06T05:03:41.311Z,12.40
2019-02-06T05:07:44.683Z,10.60
2019-02-06T05:11:48.424Z,13.23
2019-02-06T05:15:51.710Z,12.30
2019-02-06T05:19:55.448Z,13.97
2019-02-06T05:23:58.777Z,12.07
2019-02-06T05:28:02.328Z,11.23
2019-02-06T05:32:06.267Z,11.90
2019-02-06T05:36:09.634Z,11.03
2019-02-06T05:40:13.102Z,12.80
2019-02-06T05:44:16.782Z,12.80
2019-02-06T05:48:20.592Z,11.60
2019-02-06T05:52:24.717Z,11.27
2019-02-06T05:56:28.030Z,11.40
2019-02-06T06:00:36.014Z,12.60
2019-02-06T06:04:39.827Z,12.10
2019-02-06T06:08:43.138Z,11.57
2019-02-06T06:12:46.585Z,10.63
2019-02-06T06:16:50.315Z,12.30
2019-02-06T06:20:53.623Z,11.20
2019-02-06T06:24:57.163Z,12.00
2019-02-06T06:29:00.748Z,12.60
2019-02-06T06:33:04.563Z,11.70
2019-02-06T06:37:08.299Z,10.47
2019-02-06T06:41:11.586Z,9.43
2019-02-06T06:45:17.955Z,11.80
2019-02-06T06:49:21.683Z,12.50
2019-02-06T06:53:25.426Z,10.60
2019-02-06T06:57:28.710Z,12.30
2019-02-06T07:01:32.714Z,11.80
2019-02-06T07:05:36.120Z,13.37
2019-02-06T07:09:39.791Z,11.60
2019-02-06T07:13:43.079Z,11.90
2019-02-06T07:17:46.454Z,12.03
2019-02-06T07:21:50.459Z,11.47
2019-02-06T07:25:54.151Z,10.63
2019-02-06T07:29:57.714Z,11.87
2019-02-06T07:34:02.062Z,12.37
2019-02-06T07:38:05.934Z,10.87
2019-02-06T07:42:09.346Z,12.63
2019-02-06T07:46:12.639Z,10.70
2019-02-06T07:50:21.783Z,11.70
2019-02-06T07:54:25.750Z,12.30
2019-02-06T07:58:29.199Z,11.33
2019-02-06T08:02:32.958Z,12.10
2019-02-06T08:06:36.693Z,14.17
2019-02-06T08:10:40.982Z,14.50
2019-02-06T08:14:44.990Z,12.87
2019-02-06T08:18:48.370Z,13.43
2019-02-06T08:22:52.342Z,14.27
2019-02-06T08:26:56.098Z,15.37
2019-02-06T08:30:59.394Z,14.43
2019-02-06T08:35:03.175Z,13.80
2019-02-06T08:39:07.843Z,14.30
2019-02-06T08:43:11.270Z,15.43
2019-02-06T08:47:14.574Z,16.10
2019-02-06T08:51:17.874Z,17.57
2019-02-06T08:55:22.170Z,18.17
2019-02-06T08:59:25.478Z,19.00
2019-02-06T09:03:29.213Z,18.00
2019-02-06T09:07:32.506Z,21.00
2019-02-06T09:11:35.888Z,22.83
2019-02-06T09:15:39.178Z,21.60
2019-02-06T09:19:42.844Z,21.60
2019-02-06T09:23:46.140Z,23.30
2019-02-06T09:27:49.954Z,23.10
2019-02-06T09:31:53.305Z,23.33
2019-02-06T09:35:56.687Z,21.93
2019-02-06T09:40:00.577Z,23.67
2019-02-06T09:44:04.018Z,25.50
2019-02-06T09:48:07.557Z,24.57
2019-02-06T09:52:10.878Z,24.73
2019-02-06T09:56:14.312Z,24.33
2019-02-06T10:00:19.058Z,25.30
2019-02-06T10:04:22.904Z,26.83
2019-02-06T10:08:26.273Z,24.73
2019-02-06T10:12:29.631Z,23.27
2019-02-06T10:16:33.014Z,22.50
2019-02-06T10:20:42.308Z,23.63
2019-02-06T10:24:45.622Z,25.07
2019-02-06T10:28:49.788Z,25.67
2019-02-06T10:32:54.685Z,27.07
2019-02-06T10:36:58.039Z,25.53
2019-02-06T10:41:04.611Z,26.20
2019-02-06T10:45:08.651Z,23.50
2019-02-06T10:49:13.883Z,25.23
2019-02-06T10:53:17.370Z,28.53
2019-02-06T10:57:20.705Z,25.67
2019-02-06T11:01:24.632Z,25.20
2019-02-06T11:05:28.681Z,27.33
2019-02-06T11:09:32.466Z,29.37
2019-02-06T11:13:35.927Z,25.47
2019-02-06T11:17:39.824Z,25.87
2019-02-06T11:21:43.625Z,24.50
2019-02-06T11:25:47.062Z,25.13
2019-02-06T11:29:50.697Z,25.93
2019-02-06T11:33:54.175Z,26.10
2019-02-06T11:37:57.885Z,26.40
2019-02-06T11:42:01.329Z,26.13
2019-02-06T11:46:04.789Z,27.60
2019-02-06T11:50:10.970Z,25.47
2019-02-06T11:54:14.865Z,26.80
2019-02-06T11:58:18.309Z,25.17
2019-02-06T12:02:24.193Z,24.20
2019-02-06T12:06:28.083Z,23.73
2019-02-06T12:10:31.539Z,23.97
2019-02-06T12:14:34.914Z,25.10
2019-02-06T12:18:38.318Z,24.90
2019-02-06T12:22:42.370Z,24.87
2019-02-06T12:26:46.148Z,23.97
2019-02-06T12:30:50.032Z,25.43
2019-02-06T12:34:53.442Z,23.20
2019-02-06T12:38:57.260Z,23.70
2019-02-06T12:43:00.674Z,20.07
2019-02-06T12:47:04.308Z,21.60
2019-02-06T12:51:08.176Z,20.07
2019-02-06T12:55:19.551Z,21.33
2019-02-06T12:59:21.744Z,22.40
2019-02-06T13:03:25.153Z,20.47
2019-02-06T13:07:28.554Z,19.17
2019-02-06T13:11:32.347Z,18.47
2019-02-06T13:15:36.272Z,20.27
2019-02-06T13:19:39.554Z,18.47
2019-02-06T13:23:43.561Z,20.13
2019-02-06T13:27:47.476Z,19.77
2019-02-06T13:31:51.538Z,20.07
2019-02-06T13:35:54.824Z,19.20
2019-02-06T13:39:58.110Z,22.47
2019-02-06T13:44:01.398Z,19.50
2019-02-06T13:48:04.803Z,22.17
2019-02-06T13:52:08.531Z,21.60
2019-02-06T13:56:12.614Z,21.17
2019-02-06T14:00:21.802Z,20.97
2019-02-06T14:04:25.630Z,21.10
2019-02-06T14:08:29.391Z,22.20
2019-02-06T14:12:33.074Z,24.03
2019-02-06T14:16:37.147Z,22.87
2019-02-06T14:20:40.684Z,23.07
2019-02-06T14:25:24.166Z,24.50
2019-02-06T14:30:00.366Z,22.53
2019-02-06T14:34:36.718Z,26.03
2019-02-06T14:38:58.174Z,27.30
2019-02-06T14:43:54.758Z,26.07
2019-02-06T14:48:38.492Z,23.90
2019-02-06T14:52:54.731Z,27.33
2019-02-06T14:57:06.638Z,27.40
2019-02-06T15:01:20.733Z,26.27
2019-02-06T15:05:34.488Z,28.10
2019-02-06T15:09:57.385Z,30.40
2019-02-06T15:14:28.906Z,30.10
2019-02-06T15:18:36.475Z,25.80
2019-02-06T15:22:47.350Z,25.73
2019-02-06T15:27:09.068Z,26.70
2019-02-06T15:31:31.686Z,27.03
2019-02-06T15:35:54.312Z,28.20
2019-02-06T15:40:16.966Z,28.33
2019-02-06T15:44:43.335Z,26.87
2019-02-06T15:49:08.954Z,27.70
2019-02-06T15:53:38.347Z,26.60
2019-02-06T15:58:11.441Z,26.93
2019-02-06T16:02:24.727Z,27.87
2019-02-06T16:07:01.819Z,27.70
2019-02-06T16:11:27.462Z,29.90
2019-02-06T16:15:42.558Z,28.50
2019-02-06T16:20:14.446Z,27.60
2019-02-06T16:24:23.578Z,27.77
2019-02-06T16:28:46.179Z,27.87
2019-02-06T16:33:01.803Z,28.80
2019-02-06T16:37:37.186Z,27.57
2019-02-06T16:41:53.087Z,28.30
2019-02-06T16:46:06.511Z,30.30
2019-02-06T16:50:46.481Z,31.00
2019-02-06T16:55:09.056Z,30.10
2019-02-06T16:59:53.971Z,33.30
2019-02-06T17:04:31.653Z,29.40
2019-02-06T17:08:48.733Z,29.57
2019-02-06T17:13:20.592Z,31.87
2019-02-06T17:17:46.450Z,37.53
2019-02-06T17:22:18.418Z,39.77
2019-02-06T17:26:35.051Z,34.97
2019-02-06T17:31:16.099Z,33.23
2019-02-06T17:35:44.584Z,33.70
2019-02-06T17:40:26.684Z,33.77
2019-02-06T17:45:05.052Z,32.30
2019-02-06T17:49:12.822Z,33.20
2019-02-06T17:53:28.600Z,34.80
2019-02-06T17:57:32.432Z,34.57
2019-02-06T18:01:37.938Z,32.90
2019-02-06T18:05:41.261Z,32.63
2019-02-06T18:09:44.679Z,32.30
2019-02-06T18:13:48.031Z,30.20
2019-02-06T18:17:51.942Z,32.50
2019-02-06T18:21:55.490Z,30.13
2019-02-06T18:25:59.462Z,28.23
2019-02-06T18:30:03.648Z,29.80
2019-02-06T18:34:09.038Z,30.63
2019-02-06T18:38:12.533Z,32.77
2019-02-06T18:42:15.986Z,32.20
2019-02-06T18:46:20.127Z,32.23
2019-02-06T18:50:23.940Z,33.40
2019-02-06T18:54:27.931Z,32.73
2019-02-06T18:58:31.839Z,35.20
2019-02-06T19:02:35.699Z,35.07
2019-02-06T19:06:39.392Z,36.77
2019-02-06T19:10:43.106Z,37.47
2019-02-06T19:14:46.947Z,40.00
2019-02-06T19:18:50.530Z,37.90
2019-02-06T19:22:55.696Z,40.97
2019-02-06T19:26:59.270Z,38.53
2019-02-06T19:31:02.885Z,41.17
2019-02-06T19:35:06.978Z,39.00
2019-02-06T19:39:10.707Z,42.90
2019-02-06T19:43:14.257Z,38.90
2019-02-06T19:47:18.101Z,39.50
2019-02-06T19:51:21.600Z,38.17
2019-02-06T19:55:25.439Z,42.17
2019-02-06T19:59:29.460Z,39.20
2019-02-06T20:03:33.148Z,38.37
2019-02-06T20:07:36.495Z,38.27
2019-02-06T20:11:40.195Z,37.20
2019-02-06T20:15:43.955Z,38.53
2019-02-06T20:19:47.870Z,64.77
2019-02-06T20:23:51.264Z,62.17
2019-02-06T20:27:56.637Z,41.63
2019-02-06T20:32:03.315Z,39.40
2019-02-06T20:36:07.254Z,37.17
2019-02-06T20:40:12.491Z,36.77
2019-02-06T20:44:15.881Z,36.50
2019-02-06T20:48:20.376Z,35.60
2019-02-06T20:52:23.790Z,38.77
2019-02-06T20:56:27.375Z,35.53
2019-02-06T21:00:33.627Z,38.23
2019-02-06T21:04:37.076Z,35.50
2019-02-06T21:08:40.957Z,37.00
2019-02-06T21:12:44.360Z,37.40
2019-02-06T21:16:48.272Z,36.20
2019-02-06T21:20:52.032Z,36.37
2019-02-06T21:24:55.851Z,32.73
2019-02-06T21:28:59.436Z,38.97
2019-02-06T21:33:03.604Z,38.30
2019-02-06T21:37:06.932Z,36.93
2019-02-06T21:41:10.567Z,32.87
2019-02-06T21:45:15.455Z,34.73
2019-02-06T21:49:19.254Z,38.40
2019-02-06T21:53:22.870Z,35.07
2019-02-06T21:57:26.174Z,39.70
2019-02-06T22:01:29.478Z,39.57
2019-02-06T22:05:32.763Z,38.70
2019-02-06T22:09:36.595Z,44.10
2019-02-06T22:13:39.897Z,42.90
2019-02-06T22:17:43.846Z,38.67
2019-02-06T22:21:47.191Z,41.30
2019-02-06T22:25:50.930Z,39.93
2019-02-06T22:29:54.403Z,42.67
2019-02-06T22:33:58.130Z,44.70
2019-02-06T22:38:01.858Z,38.43
2019-02-06T22:42:05.918Z,41.30
2019-02-06T22:46:10.014Z,43.30
2019-02-06T22:50:14.194Z,41.30
2019-02-06T22:54:17.478Z,40.67
2019-02-06T22:58:21.516Z,39.83
2019-02-06T23:02:25.643Z,38.50
2019-02-06T23:06:29.318Z,38.10
2019-02-06T23:10:33.043Z,39.20
2019-02-06T23:14:36.342Z,36.30
2019-02-06T23:18:40.078Z,39.03
2019-02-06T23:22:43.874Z,37.40
2019-02-06T23:26:47.618Z,32.30
2019-02-06T23:30:50.910Z,34.57
2019-02-06T23:34:54.918Z,30.20
2019-02-06T23:38:58.930Z,33.37
2019-02-06T23:43:02.695Z,30.13
2019-02-06T23:47:05.992Z,27.90
2019-02-06T23:51:09.297Z,27.47
2019-02-06T23:55:12.962Z,26.80
2019-02-06T23:59:16.262Z,28.47
